Time;durP1;ratioP1;P1;durP2;ratioP2;P2;SDS_P1;SDS_P2;PMS_P1;PMS_P2;Temp;Humidity;BMP_temperature;BMP_pressure;BME280_temperature;BME280_humidity;BME280_pressure;Samples;Min_cycle;Max_cycle;Signal;HPM_P1;HPM_P2
2022/09/22 00:01:05;;;;;;;3.83;2.58;;;10.30;68.30;;;;;;9187956;19;20093;-65
2022/09/22 00:04:13;;;;;;;5.43;2.83;;;10.30;68.40;;;;;;9196132;19;20014;-66
2022/09/22 00:07:17;;;;;;;5.30;2.67;;;10.20;68.40;;;;;;9194690;19;20526;-65
2022/09/22 00:10:21;;;;;;;9.52;2.42;;;10.20;68.40;;;;;;9189931;19;20381;-64
2022/09/22 00:13:25;;;;;;;;;;;10.10;69.00;;;;;;9193975;19;20019;-65
2022/09/22 00:16:31;;;;;;;4.20;2.53;;;10.10;68.40;;;;;;9191492;19;19950;-65
2022/09/22 00:19:38;;;;;;;6.53;2.38;;;10.10;68.30;;;;;;9193687;19;20030;-65
2022/09/22 00:22:42;;;;;;;3.22;2.20;;;10.00;68.40;;;;;;9194147;19;20026;-66
2022/09/22 00:25:46;;;;;;;3.38;2.67;;;10.10;68.50;;;;;;9194631;19;20029;-65
2022/09/22 00:28:51;;;;;;;4.50;2.35;;;10.00;68.50;;;;;;9194092;19;20037;-62
2022/09/22 00:31:56;;;;;;;3.92;2.67;;;10.00;68.60;;;;;;9182758;19;20475;-65
2022/09/22 00:35:02;;;;;;;3.10;2.10;;;10.00;68.60;;;;;;9182538;19;20042;-65
2022/09/22 00:38:06;;;;;;;4.35;2.38;;;9.90;68.70;;;;;;9185219;19;20043;-66
2022/09/22 00:41:17;;;;;;;5.75;2.72;;;9.90;68.70;;;;;;9183889;19;20015;-64
2022/09/22 00:44:41;;;;;;;5.13;2.30;;;9.90;68.80;;;;;;9185148;19;20015;-65
2022/09/22 00:47:47;;;;;;;4.93;2.35;;;9.90;69.00;;;;;;9184148;19;20085;-65
2022/09/22 00:50:55;;;;;;;6.60;2.15;;;9.80;68.70;;;;;;9183842;19;20060;-67
2022/09/22 00:54:01;;;;;;;5.78;1.98;;;9.80;68.80;;;;;;9184189;19;20356;-64
2022/09/22 00:57:09;;;;;;;2.95;1.63;;;9.80;68.90;;;;;;9182550;19;20090;-64
2022/09/22 01:00:15;;;;;;;3.22;2.10;;;9.70;68.80;;;;;;9179770;19;20021;-64
2022/09/22 01:03:23;;;;;;;4.20;2.05;;;9.70;68.90;;;;;;9183410;19;20026;-64
2022/09/22 01:06:35;;;;;;;;;;;9.70;69.00;;;;;;9184936;19;20014;-64
2022/09/22 01:09:39;;;;;;;5.60;2.42;;;9.70;68.90;;;;;;9181455;19;19986;-67
2022/09/22 01:12:50;;;;;;;4.25;1.98;;;9.60;68.80;;;;;;9182529;19;20048;-64
2022/09/22 01:16:06;;;;;;;2.58;2.03;;;9.60;68.90;;;;;;9181844;19;20019;-64
2022/09/22 01:19:35;;;;;;;4.13;2.58;;;9.60;69.00;;;;;;9182671;19;20090;-64
2022/09/22 01:23:08;;;;;;;3.40;2.08;;;9.60;69.10;;;;;;9181575;19;20017;-66
2022/09/22 01:26:50;;;;;;;4.15;2.28;;;9.50;69.10;;;;;;9182868;19;20019;-65
2022/09/22 01:30:26;;;;;;;5.78;2.33;;;9.50;69.20;;;;;;9182414;19;20086;-65
2022/09/22 01:33:44;;;;;;;4.13;1.85;;;9.50;69.20;;;;;;9181437;19;20085;-65
2022/09/22 01:36:54;;;;;;;4.05;2.20;;;9.40;69.20;;;;;;9179648;19;20027;-66
2022/09/22 01:40:05;;;;;;;3.70;1.92;;;9.40;69.10;;;;;;9182589;19;20022;-66
2022/09/22 01:43:15;;;;;;;2.30;1.83;;;9.40;69.30;;;;;;9181762;19;20052;-66
2022/09/22 01:46:27;;;;;;;2.50;1.67;;;9.30;69.20;;;;;;9182177;19;20094;-65
2022/09/22 01:49:36;;;;;;;2.92;2.00;;;9.30;69.30;;;;;;9182211;19;20018;-65
2022/09/22 01:52:42;;;;;;;4.28;2.30;;;9.30;69.30;;;;;;9180582;19;20077;-65
2022/09/22 01:55:50;;;;;;;3.08;1.77;;;9.30;69.30;;;;;;9180310;19;20036;-65
2022/09/22 01:58:56;;;;;;;3.72;1.92;;;9.20;69.30;;;;;;9182547;19;20456;-65
2022/09/22 02:02:05;;;;;;;4.70;2.55;;;9.20;69.40;;;;;;9176862;19;20026;-64
2022/09/22 02:05:13;;;;;;;5.05;2.42;;;9.20;69.40;;;;;;9181300;19;20045;-65
2022/09/22 02:08:28;;;;;;;3.67;2.03;;;9.20;69.50;;;;;;9181165;19;20019;-67
2022/09/22 02:11:32;;;;;;;3.58;1.80;;;9.20;69.60;;;;;;9182086;19;20022;-65
2022/09/22 02:14:36;;;;;;;3.70;2.97;;;9.20;69.50;;;;;;9182379;19;20015;-68
2022/09/22 02:17:42;;;;;;;3.90;2.10;;;9.10;69.60;;;;;;9182653;19;20089;-67
2022/09/22 02:20:46;;;;;;;4.18;1.92;;;9.10;69.70;;;;;;9182921;19;20030;-63
2022/09/22 02:23:50;;;;;;;2.03;1.50;;;9.10;69.60;;;;;;9182237;19;20518;-65
2022/09/22 02:26:57;;;;;;;4.03;2.15;;;9.10;69.70;;;;;;9180536;19;20018;-64
2022/09/22 02:30:07;;;;;;;3.15;1.90;;;9.00;69.50;;;;;;9180110;19;20099;-66
2022/09/22 02:33:13;;;;;;;5.60;2.25;;;9.00;69.60;;;;;;9181128;19;20051;-65
2022/09/22 02:36:39;;;;;;;3.03;2.20;;;9.00;69.70;;;;;;9177210;19;20512;-65
2022/09/22 02:39:48;;;;;;;6.07;1.98;;;8.90;69.80;;;;;;9178881;19;20018;-66
2022/09/22 02:42:59;;;;;;;3.78;2.10;;;8.90;69.70;;;;;;9181346;19;20006;-66
2022/09/22 02:46:09;;;;;;;2.63;2.05;;;8.90;69.80;;;;;;9180040;19;20010;-66
2022/09/22 02:49:18;;;;;;;3.70;2.15;;;8.90;69.90;;;;;;9177906;19;20057;-66
2022/09/22 02:52:25;;;;;;;3.15;2.28;;;8.80;69.80;;;;;;9178522;19;20022;-66
2022/09/22 02:55:29;;;;;;;5.78;2.20;;;8.80;69.90;;;;;;9178772;19;20642;-66
2022/09/22 02:58:32;;;;;;;3.05;2.03;;;8.80;69.90;;;;;;9180830;19;20018;-66
2022/09/22 03:01:36;;;;;;;3.58;2.00;;;8.80;69.90;;;;;;9175365;19;20092;-67
2022/09/22 03:04:42;;;;;;;4.07;2.05;;;8.80;70.00;;;;;;9179787;19;20026;-64
2022/09/22 03:07:46;;;;;;;3.85;2.00;;;8.80;70.00;;;;;;9178354;19;20478;-64
2022/09/22 03:10:49;;;;;;;3.38;2.22;;;8.70;70.00;;;;;;9179520;19;20519;-66
2022/09/22 03:13:53;;;;;;;4.40;2.50;;;8.70;70.00;;;;;;9179579;19;20017;-64
2022/09/22 03:16:57;;;;;;;8.63;2.75;;;8.70;70.10;;;;;;9173699;19;20014;-66
2022/09/22 03:20:03;;;;;;;3.22;2.53;;;8.70;70.10;;;;;;9179590;19;20023;-64
2022/09/22 03:23:07;;;;;;;11.65;2.47;;;8.60;70.10;;;;;;9179665;19;20022;-67
2022/09/22 03:26:10;;;;;;;4.55;2.40;;;8.60;70.10;;;;;;9178593;19;20031;-67
2022/09/22 03:29:14;;;;;;;7.10;2.05;;;8.60;70.20;;;;;;9178713;19;20018;-64
2022/09/22 03:32:18;;;;;;;4.80;2.30;;;8.60;70.20;;;;;;9178225;19;20472;-67
2022/09/22 03:35:23;;;;;;;5.80;2.20;;;8.60;70.30;;;;;;9177227;19;20026;-66
2022/09/22 03:38:27;;;;;;;3.63;2.55;;;8.50;70.20;;;;;;9177927;19;20026;-65
2022/09/22 03:41:30;;;;;;;3.40;2.53;;;8.50;70.20;;;;;;9178338;19;20651;-64
2022/09/22 03:44:34;;;;;;;5.68;2.70;;;8.50;70.30;;;;;;9177634;19;20479;-65
2022/09/22 03:47:38;;;;;;;5.43;2.28;;;8.50;70.30;;;;;;9177813;19;20367;-67
2022/09/22 03:50:43;;;;;;;6.22;2.53;;;8.50;70.30;;;;;;9178295;19;20022;-66
2022/09/22 03:53:47;;;;;;;3.40;2.33;;;8.40;70.20;;;;;;9178115;19;20021;-66
2022/09/22 03:56:51;;;;;;;4.93;1.98;;;8.50;70.40;;;;;;9174080;19;20534;-66
2022/09/22 03:59:54;;;;;;;;;;;8.40;70.30;;;;;;9178351;19;20027;-65
2022/09/22 04:02:58;;;;;;;2.95;2.00;;;8.40;70.30;;;;;;9174203;19;20388;-64
2022/09/22 04:06:05;;;;;;;4.03;2.42;;;8.40;70.20;;;;;;9181996;19;20434;-66
2022/09/22 04:09:09;;;;;;;7.45;2.05;;;8.40;70.30;;;;;;9184257;19;20051;-66
2022/09/22 04:12:13;;;;;;;3.13;2.15;;;8.30;70.30;;;;;;9184349;19;20369;-66
2022/09/22 04:15:16;;;;;;;3.28;2.10;;;8.30;70.40;;;;;;9184757;19;20097;-65
2022/09/22 04:18:20;;;;;;;1.83;1.67;;;8.30;70.40;;;;;;9185727;19;20019;-66
2022/09/22 04:21:27;;;;;;;;;;;8.30;70.40;;;;;;9185668;19;20022;-64
2022/09/22 04:24:33;;;;;;;2.38;1.73;;;8.20;70.40;;;;;;9184677;19;19936;-66
2022/09/22 04:27:36;;;;;;;2.38;1.90;;;8.20;70.20;;;;;;9184764;19;20460;-65
2022/09/22 04:30:42;;;;;;;2.00;1.80;;;8.20;70.30;;;;;;9182755;19;20033;-64
2022/09/22 04:33:46;;;;;;;4.15;2.30;;;8.20;70.40;;;;;;9185032;19;20018;-64
2022/09/22 04:36:52;;;;;;;4.18;2.30;;;8.20;70.40;;;;;;9182036;19;20006;-65
2022/09/22 04:39:55;;;;;;;3.70;2.53;;;8.20;70.50;;;;;;9184282;19;20014;-65
2022/09/22 04:42:59;;;;;;;3.90;2.80;;;8.10;70.50;;;;;;9179836;19;20043;-65
2022/09/22 04:46:03;;;;;;;4.40;2.83;;;8.10;70.50;;;;;;9182277;19;20140;-64
2022/09/22 04:49:07;;;;;;;6.72;2.83;;;8.10;70.60;;;;;;9183840;19;20026;-65
2022/09/22 04:52:12;;;;;;;5.43;3.00;;;8.10;70.60;;;;;;9184355;19;20014;-65
2022/09/22 04:55:16;;;;;;;3.03;1.92;;;8.10;70.60;;;;;;9182656;19;20015;-65
2022/09/22 04:58:20;;;;;;;3.20;2.30;;;8.00;70.60;;;;;;9184578;19;20033;-66
2022/09/22 05:01:26;;;;;;;9.43;2.88;;;8.00;70.60;;;;;;9179930;19;20097;-65
2022/09/22 05:04:29;;;;;;;4.05;2.05;;;8.00;70.60;;;;;;9180785;19;20026;-66
2022/09/22 05:07:35;;;;;;;3.80;2.60;;;8.00;70.70;;;;;;9179864;19;20018;-65
2022/09/22 05:10:40;;;;;;;3.85;2.70;;;8.00;70.70;;;;;;9180330;19;20041;-65
2022/09/22 05:13:43;;;;;;;7.45;2.90;;;8.00;70.70;;;;;;9183676;19;20583;-65
2022/09/22 05:16:47;;;;;;;8.65;3.38;;;7.90;70.70;;;;;;9173933;19;20018;-64
2022/09/22 05:19:53;;;;;;;10.25;3.58;;;7.90;70.80;;;;;;9182728;19;20010;-65
2022/09/22 05:22:59;;;;;;;8.10;3.67;;;7.90;70.80;;;;;;9183347;19;20863;-65
2022/09/22 05:26:03;;;;;;;7.43;3.53;;;7.90;70.90;;;;;;9182105;19;20078;-64
2022/09/22 05:29:06;;;;;;;6.35;3.15;;;7.90;70.90;;;;;;9182438;19;20051;-66
2022/09/22 05:32:10;;;;;;;5.93;3.40;;;7.90;70.90;;;;;;9182469;19;20065;-65
2022/09/22 05:35:14;;;;;;;4.28;2.70;;;7.80;70.90;;;;;;9181603;19;20523;-66
2022/09/22 05:38:20;;;;;;;4.85;3.08;;;7.80;70.90;;;;;;9179987;19;20014;-65
2022/09/22 05:41:24;;;;;;;4.93;3.45;;;7.80;71.00;;;;;;9181502;19;20090;-65
2022/09/22 05:44:28;;;;;;;6.35;3.50;;;7.80;71.10;;;;;;9182628;19;20014;-65
2022/09/22 05:47:34;;;;;;;6.30;3.45;;;7.80;71.10;;;;;;9180670;19;20018;-64
2022/09/22 05:50:37;;;;;;;8.43;3.78;;;7.80;71.10;;;;;;9182330;19;20018;-65
2022/09/22 05:53:43;;;;;;;7.18;3.83;;;7.80;71.10;;;;;;9182621;19;20030;-66
2022/09/22 05:56:47;;;;;;;9.20;3.17;;;7.80;71.20;;;;;;9179592;19;20029;-64
2022/09/22 05:59:50;;;;;;;6.45;3.92;;;7.80;71.30;;;;;;9181693;19;20118;-65
2022/09/22 06:02:54;;;;;;;6.55;3.90;;;7.80;71.30;;;;;;9176972;19;20035;-64
2022/09/22 06:05:58;;;;;;;7.03;4.03;;;7.80;71.30;;;;;;9178882;19;20021;-65
2022/09/22 06:09:04;;;;;;;8.25;4.63;;;7.80;71.30;;;;;;9176314;19;20018;-65
2022/09/22 06:12:08;;;;;;;8.90;4.82;;;7.80;71.40;;;;;;9179155;19;20011;-66
2022/09/22 06:15:12;;;;;;;8.20;4.38;;;7.80;71.40;;;;;;9178523;19;20011;-65
2022/09/22 06:18:16;;;;;;;9.25;4.68;;;7.80;71.40;;;;;;9180853;19;20007;-63
2022/09/22 06:21:27;;;;;;;11.18;5.78;;;7.80;71.50;;;;;;9182072;19;20380;-65
2022/09/22 06:24:33;;;;;;;12.00;6.38;;;7.90;71.60;;;;;;9171074;19;20048;-65
2022/09/22 06:27:36;;;;;;;12.20;6.15;;;7.90;71.70;;;;;;9172449;19;20098;-65
2022/09/22 06:30:40;;;;;;;10.02;4.93;;;7.90;71.70;;;;;;9174825;19;20010;-62
2022/09/22 06:33:47;;;;;;;8.55;5.15;;;7.90;71.80;;;;;;9172426;19;20129;-67
2022/09/22 06:36:52;;;;;;;12.05;5.45;;;8.00;71.80;;;;;;9175744;19;20011;-65
2022/09/22 06:39:58;;;;;;;11.18;6.72;;;8.00;71.90;;;;;;9175505;19;20440;-65
2022/09/22 06:43:10;;;;;;;19.98;7.15;;;8.10;72.00;;;;;;9178807;19;20007;-65
2022/09/22 06:46:17;;;;;;;10.85;5.93;;;8.10;72.10;;;;;;9178282;19;20055;-65
2022/09/22 06:49:21;;;;;;;9.70;5.30;;;8.20;72.10;;;;;;9178783;19;20085;-65
2022/09/22 06:52:26;;;;;;;9.02;5.57;;;8.20;72.20;;;;;;9180119;19;20428;-65
2022/09/22 06:55:32;;;;;;;9.73;5.78;;;8.30;72.20;;;;;;9178947;19;20022;-64
2022/09/22 06:58:36;;;;;;;12.52;6.15;;;8.30;72.20;;;;;;9175425;19;20014;-65
2022/09/22 07:02:03;;;;;;;16.00;6.43;;;8.40;72.30;;;;;;9174525;19;20010;-63
2022/09/22 07:05:07;;;;;;;10.90;6.28;;;8.40;72.30;;;;;;9179662;19;20363;-67
2022/09/22 07:08:11;;;;;;;11.57;6.93;;;8.50;72.40;;;;;;9177930;19;20055;-67
2022/09/22 07:11:22;;;;;;;19.77;7.93;;;8.50;72.60;;;;;;9178655;19;20030;-66
2022/09/22 07:14:27;;;;;;;18.58;7.97;;;8.60;72.70;;;;;;9180210;19;20056;-68
2022/09/22 07:17:31;;;;;;;13.25;7.78;;;8.70;72.60;;;;;;9176772;19;20011;-69
2022/09/22 07:20:35;;;;;;;18.95;8.93;;;8.80;72.80;;;;;;9179312;19;20034;-68
2022/09/22 07:23:39;;;;;;;;;;;8.90;72.90;;;;;;9178786;19;20386;-68
2022/09/22 07:26:45;;;;;;;17.25;9.30;;;9.00;72.90;;;;;;9177631;19;19918;-69
2022/09/22 07:29:49;;;;;;;17.42;9.60;;;9.10;72.70;;;;;;9177465;19;20097;-65
2022/09/22 07:32:52;;;;;;;15.43;8.73;;;9.20;72.90;;;;;;9176214;19;20035;-69
2022/09/22 07:36:04;;;;;;;16.63;8.43;;;9.30;73.10;;;;;;9177991;19;20026;-68
2022/09/22 07:39:10;;;;;;;25.98;8.90;;;9.50;73.30;;;;;;9180793;19;20532;-69
2022/09/22 07:42:15;;;;;;;17.45;10.15;;;9.60;73.20;;;;;;9187166;19;20086;-69
2022/09/22 07:45:22;;;;;;;18.23;8.25;;;9.80;73.30;;;;;;9186697;19;20023;-69
2022/09/22 07:48:41;;;;;;;16.83;8.50;;;9.90;73.40;;;;;;9187467;19;20574;-68
2022/09/22 07:51:45;;;;;;;19.35;8.93;;;10.00;73.30;;;;;;9186433;19;20031;-69
2022/09/22 07:54:49;;;;;;;16.35;8.07;;;10.20;73.40;;;;;;9187262;19;20013;-68
2022/09/22 07:58:00;;;;;;;21.05;8.70;;;10.30;73.50;;;;;;9182768;19;20019;-67
2022/09/22 08:01:07;;;;;;;16.58;8.43;;;10.50;73.80;;;;;;9180625;19;20088;-67
2022/09/22 08:04:15;;;;;;;15.90;8.15;;;10.70;73.70;;;;;;9185632;19;20503;-65
2022/09/22 08:07:19;;;;;;;16.15;8.30;;;10.90;73.70;;;;;;9186269;19;20031;-68
2022/09/22 08:10:22;;;;;;;11.82;7.35;;;11.10;73.70;;;;;;9182757;19;20123;-67
2022/09/22 08:13:28;;;;;;;15.55;8.02;;;11.40;73.90;;;;;;9186664;19;20090;-68
2022/09/22 08:16:33;;;;;;;15.43;7.20;;;11.60;73.90;;;;;;9180885;19;20504;-68
2022/09/22 08:19:37;;;;;;;12.60;7.13;;;11.80;73.80;;;;;;9176448;19;20090;-68
2022/09/22 08:22:41;;;;;;;11.48;7.28;;;12.00;73.70;;;;;;9178982;19;20042;-67
2022/09/22 08:25:45;;;;;;;14.32;7.07;;;12.30;73.70;;;;;;9178120;19;20082;-68
2022/09/22 08:28:54;;;;;;;14.25;6.40;;;12.60;73.70;;;;;;9178871;19;20015;-67
2022/09/22 08:31:58;;;;;;;11.35;5.80;;;12.80;73.70;;;;;;9179872;19;20567;-66
2022/09/22 08:35:02;;;;;;;11.85;6.30;;;13.00;73.60;;;;;;9178793;19;20034;-67
2022/09/22 08:38:06;;;;;;;11.70;5.55;;;13.40;73.50;;;;;;9177792;19;20010;-68
2022/09/22 08:41:23;;;;;;;24.02;6.28;;;13.60;73.30;;;;;;9184460;19;20025;-68
2022/09/22 08:44:34;;;;;;;11.75;5.43;;;13.90;73.20;;;;;;9183323;19;20035;-68
2022/09/22 08:54:25;;;;;;;9.90;6.03;;;14.70;72.80;;;;;;9183581;19;20471;-68
2022/09/22 08:57:55;;;;;;;19.10;4.57;;;15.00;72.50;;;;;;9181041;19;20089;-67
2022/09/22 09:01:10;;;;;;;10.60;4.78;;;15.30;72.30;;;;;;9179996;19;20017;-67
2022/09/22 09:04:47;;;;;;;12.23;4.93;;;15.60;72.20;;;;;;9183939;19;20601;-68
2022/09/22 09:07:59;;;;;;;10.20;5.00;;;15.80;71.90;;;;;;9181259;19;20027;-66
2022/09/22 09:11:15;;;;;;;10.45;5.28;;;16.10;71.70;;;;;;9181675;19;20030;-68
2022/09/22 09:14:42;;;;;;;9.38;4.45;;;16.30;71.50;;;;;;9181809;19;20090;-66
2022/09/22 09:17:49;;;;;;;13.27;4.85;;;16.60;71.40;;;;;;9181351;19;20434;-70
2022/09/22 09:20:53;;;;;;;12.38;4.65;;;16.80;71.10;;;;;;9182477;19;20019;-68
2022/09/22 09:24:01;;;;;;;9.80;4.93;;;17.10;71.00;;;;;;9182019;19;20014;-69
2022/09/22 09:27:29;;;;;;;7.38;4.00;;;17.30;70.80;;;;;;9182173;19;20022;-70
2022/09/22 09:30:39;;;;;;;14.32;3.53;;;17.50;70.60;;;;;;9182215;19;20014;-67
2022/09/22 09:33:55;;;;;;;9.27;3.70;;;17.70;70.30;;;;;;9181316;19;20022;-68
2022/09/22 09:37:07;;;;;;;10.63;3.53;;;18.00;70.00;;;;;;9179192;19;20349;-69
2022/09/22 09:40:16;;;;;;;12.52;3.83;;;18.20;69.70;;;;;;9183178;19;20018;-69
2022/09/22 09:43:23;;;;;;;9.40;3.40;;;18.30;69.40;;;;;;9182367;19;20044;-69
2022/09/22 09:46:39;;;;;;;6.53;3.47;;;18.50;69.10;;;;;;9183018;19;20018;-69
2022/09/22 09:49:46;;;;;;;12.18;4.05;;;18.70;68.80;;;;;;9181423;19;20019;-70
2022/09/22 09:52:56;;;;;;;9.65;3.08;;;18.80;68.60;;;;;;9181777;19;20097;-68
2022/09/22 09:56:00;;;;;;;5.53;3.40;;;19.00;68.60;;;;;;9180528;19;20023;-68
2022/09/22 10:02:26;;;;;;;8.02;2.72;;;19.30;68.20;;;;;;9167634;19;20029;-71
2022/09/22 10:05:36;;;;;;;4.65;2.58;;;19.50;68.00;;;;;;9172456;19;20022;-67
2022/09/22 10:08:44;;;;;;;8.27;3.08;;;19.60;67.70;;;;;;9174311;19;20090;-70
2022/09/22 10:11:59;;;;;;;8.20;2.67;;;19.80;67.50;;;;;;9174883;19;20014;-70
2022/09/22 10:15:04;;;;;;;12.48;2.83;;;20.00;67.00;;;;;;9174769;19;20081;-71
2022/09/22 10:18:32;;;;;;;9.18;2.88;;;20.20;67.00;;;;;;9171892;19;20014;-69
2022/09/22 10:21:37;;;;;;;2.72;1.90;;;20.30;66.20;;;;;;9175665;19;20043;-67
2022/09/22 10:24:42;;;;;;;8.05;2.00;;;20.50;66.40;;;;;;9174349;19;20029;-67
2022/09/22 10:28:00;;;;;;;7.13;2.28;;;20.60;66.00;;;;;;9172971;19;20034;-70
2022/09/22 10:31:04;;;;;;;8.23;1.77;;;20.80;65.40;;;;;;9173922;19;20081;-71
2022/09/22 10:34:30;;;;;;;4.22;1.73;;;20.90;65.50;;;;;;9175004;19;20038;-69
2022/09/22 10:37:36;;;;;;;4.53;2.15;;;21.00;64.70;;;;;;9171194;19;20383;-71
2022/09/22 10:40:42;;;;;;;3.85;2.00;;;21.20;64.90;;;;;;9175002;19;20010;-70
2022/09/22 10:43:50;;;;;;;5.70;1.95;;;21.30;64.60;;;;;;9174931;19;20480;-68
2022/09/22 10:47:18;;;;;;;10.52;2.47;;;21.30;64.30;;;;;;9172011;19;20422;-69
2022/09/22 10:50:54;;;;;;;5.05;2.30;;;21.40;63.60;;;;;;9172954;19;20026;-68
2022/09/22 10:54:20;;;;;;;6.03;2.10;;;21.60;63.20;;;;;;9174353;19;20010;-70
2022/09/22 10:57:36;;;;;;;5.00;1.85;;;21.60;62.90;;;;;;9171216;19;20022;-69
2022/09/22 11:00:41;;;;;;;5.78;2.00;;;21.70;62.90;;;;;;9168612;19;20047;-69
2022/09/22 11:03:59;;;;;;;8.35;1.65;;;21.70;62.80;;;;;;9173588;19;20022;-68
2022/09/22 11:14:09;;;;;;;5.68;2.17;;;21.70;62.00;;;;;;9176107;19;20011;-69
2022/09/22 11:17:31;;;;;;;5.22;2.05;;;21.80;61.80;;;;;;9176128;19;20117;-69
2022/09/22 11:20:37;;;;;;;6.10;2.20;;;21.80;61.50;;;;;;9178189;19;20062;-70
2022/09/22 11:23:59;;;;;;;9.23;2.55;;;21.80;61.60;;;;;;9178308;19;20045;-69
2022/09/22 11:27:05;;;;;;;4.95;2.10;;;21.90;61.10;;;;;;9178927;19;20371;-69
2022/09/22 11:30:19;;;;;;;7.72;2.40;;;22.00;61.20;;;;;;9178852;19;20531;-70
2022/09/22 11:33:38;;;;;;;5.50;2.00;;;22.00;60.80;;;;;;9180215;19;20099;-71
2022/09/22 11:36:49;;;;;;;6.68;2.05;;;22.20;60.60;;;;;;9178037;19;20010;-70
2022/09/22 11:40:17;;;;;;;5.15;2.03;;;22.30;60.50;;;;;;9179922;19;20368;-70
2022/09/22 11:43:40;;;;;;;4.88;2.13;;;22.30;60.00;;;;;;9179801;19;20574;-70
2022/09/22 11:46:59;;;;;;;3.42;1.77;;;22.40;59.80;;;;;;9176905;19;20048;-70
2022/09/22 11:50:32;;;;;;;7.55;2.22;;;22.40;59.80;;;;;;9177150;19;20483;-70
2022/09/22 11:54:11;;;;;;;4.30;2.03;;;22.40;59.20;;;;;;9175077;19;20575;-70
2022/09/22 11:57:18;;;;;;;4.30;1.75;;;22.30;59.10;;;;;;9171489;19;20106;-71
2022/09/22 12:00:23;;;;;;;4.05;2.05;;;22.30;59.50;;;;;;9169463;19;20535;-71
2022/09/22 12:03:33;;;;;;;7.10;1.90;;;22.20;59.40;;;;;;9173684;19;20019;-68
2022/09/22 12:06:43;;;;;;;5.10;1.90;;;22.20;59.20;;;;;;9172325;19;20085;-69
2022/09/22 12:09:52;;;;;;;4.25;1.98;;;22.20;59.00;;;;;;9169493;19;20516;-68
2022/09/22 12:12:56;;;;;;;5.75;2.22;;;22.20;59.00;;;;;;9171273;19;20029;-68
2022/09/22 12:16:05;;;;;;;;;;;22.10;58.80;;;;;;9174019;19;20082;-69
2022/09/22 12:19:20;;;;;;;10.43;1.60;;;22.10;59.10;;;;;;9173356;19;19935;-69
2022/09/22 12:22:30;;;;;;;5.10;1.80;;;22.10;59.00;;;;;;9173817;19;20418;-69
2022/09/22 12:25:51;;;;;;;5.53;1.85;;;22.00;58.70;;;;;;9174007;19;20022;-68
2022/09/22 12:28:56;;;;;;;5.22;1.70;;;22.00;58.10;;;;;;9182489;19;20015;-69
2022/09/22 12:32:02;;;;;;;4.32;1.30;;;22.00;58.50;;;;;;9180067;19;20070;-68
2022/09/22 12:35:09;;;;;;;6.80;1.63;;;21.90;58.30;;;;;;9180005;19;20086;-68
2022/09/22 12:38:13;;;;;;;8.40;1.55;;;21.80;58.10;;;;;;9180798;19;20035;-68
2022/09/22 12:41:20;;;;;;;5.03;1.70;;;21.80;58.10;;;;;;9181046;19;20042;-70
2022/09/22 12:44:26;;;;;;;4.03;1.58;;;21.70;57.90;;;;;;9184310;19;20366;-69
2022/09/22 12:47:34;;;;;;;5.88;1.88;;;21.60;57.70;;;;;;9183855;19;20029;-68
2022/09/22 12:50:40;;;;;;;6.07;1.70;;;21.60;57.60;;;;;;9184432;19;20022;-69
2022/09/22 12:53:44;;;;;;;4.20;1.80;;;21.60;57.70;;;;;;9184108;19;20096;-69
2022/09/22 12:57:27;;;;;;;6.47;1.70;;;21.60;57.70;;;;;;9182155;19;20018;-69
2022/09/22 13:00:36;;;;;;;5.85;1.92;;;21.50;57.30;;;;;;9178145;19;21103;-70
2022/09/22 13:03:51;;;;;;;4.53;1.50;;;21.50;57.40;;;;;;9183506;19;20018;-70
2022/09/22 13:06:57;;;;;;;5.03;1.63;;;21.50;57.20;;;;;;9180438;19;20029;-70
2022/09/22 13:10:34;;;;;;;7.60;2.13;;;21.50;57.40;;;;;;9179065;19;20411;-70
2022/09/22 13:13:40;;;;;;;3.13;1.85;;;21.40;56.90;;;;;;9182818;19;20022;-69
2022/09/22 13:16:45;;;;;;;4.93;1.92;;;21.40;57.30;;;;;;9179726;19;20018;-69
2022/09/22 13:19:56;;;;;;;10.60;2.78;;;21.40;57.30;;;;;;9183730;19;20021;-68
2022/09/22 13:23:07;;;;;;;4.65;1.58;;;21.40;56.90;;;;;;9183595;19;20411;-69
2022/09/22 13:26:15;;;;;;;5.00;1.35;;;21.30;56.90;;;;;;9180705;19;20086;-69
2022/09/22 13:29:20;;;;;;;5.53;1.90;;;21.30;57.00;;;;;;9183250;19;20021;-69
2022/09/22 13:32:26;;;;;;;4.97;1.75;;;21.30;56.90;;;;;;9183514;19;20011;-69
2022/09/22 13:35:35;;;;;;;5.38;2.03;;;21.30;56.90;;;;;;9181284;19;20006;-69
2022/09/22 13:38:41;;;;;;;3.75;1.73;;;21.30;57.30;;;;;;9176742;19;20015;-70
2022/09/22 13:41:49;;;;;;;10.15;2.08;;;21.30;56.80;;;;;;9183185;19;20018;-70
2022/09/22 13:44:58;;;;;;;8.32;2.08;;;21.30;56.70;;;;;;9181285;19;20044;-69
2022/09/22 13:48:08;;;;;;;8.20;2.35;;;21.20;56.60;;;;;;9182673;19;20638;-70
2022/09/22 13:51:17;;;;;;;9.93;2.00;;;21.20;56.40;;;;;;9182960;19;20018;-70
2022/09/22 13:54:26;;;;;;;7.95;2.22;;;21.30;56.50;;;;;;9182574;19;20082;-70
2022/09/22 13:57:32;;;;;;;5.45;2.00;;;21.30;56.40;;;;;;9180559;19;20734;-70
2022/09/22 14:00:43;;;;;;;9.90;2.75;;;21.30;56.30;;;;;;9177703;19;20022;-70
2022/09/22 14:04:22;;;;;;;5.57;1.92;;;21.30;56.10;;;;;;9178366;19;20021;-70
2022/09/22 14:07:31;;;;;;;7.70;2.30;;;21.30;55.80;;;;;;9181931;19;20047;-69
2022/09/22 14:10:35;;;;;;;5.63;2.47;;;21.40;56.10;;;;;;9180485;19;20111;-69
2022/09/22 14:13:39;;;;;;;;;;;21.40;56.10;;;;;;9182502;19;20006;-69
2022/09/22 14:16:49;;;;;;;7.80;2.30;;;21.30;56.30;;;;;;9180868;19;19914;-70
2022/09/22 14:19:56;;;;;;;6.30;1.75;;;21.30;56.10;;;;;;9182145;19;20018;-69
2022/09/22 14:23:02;;;;;;;5.95;2.00;;;21.30;56.10;;;;;;9181794;19;20038;-69
2022/09/22 14:26:36;;;;;;;5.57;2.05;;;21.20;56.50;;;;;;9181468;19;20096;-69
2022/09/22 14:29:40;;;;;;;4.97;2.50;;;21.20;55.60;;;;;;9180847;19;20014;-70
2022/09/22 14:32:49;;;;;;;7.10;2.42;;;21.20;55.90;;;;;;9179785;19;20015;-69
2022/09/22 14:36:01;;;;;;;5.20;1.90;;;21.10;55.60;;;;;;9178884;19;20090;-69
2022/09/22 14:39:07;;;;;;;5.03;1.60;;;21.10;55.50;;;;;;9180496;19;20334;-69
2022/09/22 14:42:21;;;;;;;4.75;1.60;;;21.10;55.70;;;;;;9179144;19;20614;-68
2022/09/22 14:45:28;;;;;;;8.48;1.90;;;21.00;55.50;;;;;;9179735;19;20026;-69
2022/09/22 14:48:35;;;;;;;5.35;1.55;;;21.10;55.60;;;;;;9177342;19;20951;-69
2022/09/22 14:51:38;;;;;;;6.15;1.52;;;21.00;55.50;;;;;;9179840;19;20021;-69
2022/09/22 14:54:45;;;;;;;;;;;21.00;55.50;;;;;;9180148;19;20039;-69
2022/09/22 14:57:50;;;;;;;7.45;1.80;;;21.00;55.70;;;;;;9176277;19;19982;-69
2022/09/22 15:04:19;;;;;;;8.43;1.77;;;21.00;55.60;;;;;;9180501;19;20019;-70
2022/09/22 15:07:28;;;;;;;5.18;1.52;;;21.00;55.60;;;;;;9179900;19;20025;-70
2022/09/22 15:10:34;;;;;;;5.22;1.60;;;20.90;55.40;;;;;;9177169;19;20020;-69
2022/09/22 15:13:40;;;;;;;6.43;1.77;;;20.90;55.30;;;;;;9179813;19;20055;-68
2022/09/22 15:16:44;;;;;;;7.93;1.40;;;20.90;55.40;;;;;;9179222;19;20508;-68
2022/09/22 15:19:52;;;;;;;3.78;1.73;;;20.90;55.40;;;;;;9179803;19;20082;-68
2022/09/22 15:22:56;;;;;;;4.60;1.58;;;20.80;55.30;;;;;;9179262;19;20006;-67
2022/09/22 15:26:04;;;;;;;8.70;1.70;;;20.70;55.30;;;;;;9179615;19;20018;-68
2022/09/22 15:29:11;;;;;;;2.65;1.20;;;20.70;55.30;;;;;;9179218;19;20011;-69
2022/09/22 15:32:15;;;;;;;7.22;2.50;;;20.70;55.30;;;;;;9177423;19;20042;-68
2022/09/22 15:35:19;;;;;;;;;;;20.60;55.30;;;;;;9179950;19;20502;-69
2022/09/22 15:38:26;;;;;;;3.60;1.88;;;20.60;55.40;;;;;;9174036;19;19915;-70
2022/09/22 15:41:32;;;;;;;5.20;1.50;;;20.60;55.50;;;;;;9177175;19;20368;-71
2022/09/22 15:44:36;;;;;;;2.92;1.52;;;20.60;55.40;;;;;;9178313;19;20421;-72
2022/09/22 15:47:40;;;;;;;5.22;1.67;;;20.50;55.40;;;;;;9179552;19;20026;-71
2022/09/22 15:50:43;;;;;;;;;;;20.50;55.30;;;;;;9179399;19;20015;-71
2022/09/22 15:53:47;;;;;;;4.32;1.50;;;20.40;55.40;;;;;;9174962;19;20663;-72
2022/09/22 15:56:55;;;;;;;3.55;1.60;;;20.40;55.50;;;;;;9163046;19;20106;-70
2022/09/22 15:59:59;;;;;;;3.42;1.60;;;20.30;55.40;;;;;;9164088;19;20097;-69
2022/09/22 16:03:02;;;;;;;4.30;1.70;;;20.30;55.40;;;;;;9174821;19;20018;-69
2022/09/22 16:06:08;;;;;;;2.85;1.67;;;20.20;55.40;;;;;;9170440;19;20021;-68
2022/09/22 16:09:15;;;;;;;4.97;1.38;;;20.10;55.30;;;;;;9171432;19;20019;-69
2022/09/22 16:12:21;;;;;;;6.45;1.55;;;20.10;55.30;;;;;;9170403;19;20082;-70
2022/09/22 16:15:29;;;;;;;3.95;1.60;;;20.00;55.40;;;;;;9173664;19;20015;-68
2022/09/22 16:18:34;;;;;;;6.65;1.65;;;19.90;55.40;;;;;;9170373;19;20049;-67
2022/09/22 16:21:40;;;;;;;3.17;1.42;;;19.90;55.60;;;;;;9177209;19;20433;-70
2022/09/22 16:24:43;;;;;;;4.70;1.90;;;19.80;55.70;;;;;;9177340;19;20355;-70
2022/09/22 16:27:49;;;;;;;3.75;1.50;;;19.70;55.70;;;;;;9174662;19;20078;-69
2022/09/22 16:30:52;;;;;;;5.30;1.55;;;19.60;55.70;;;;;;9173662;19;20029;-71
2022/09/22 16:33:59;;;;;;;8.20;2.00;;;19.60;55.90;;;;;;9170502;19;20043;-70
2022/09/22 16:37:02;;;;;;;6.80;1.60;;;19.50;55.90;;;;;;9170920;19;20053;-70
2022/09/22 16:40:07;;;;;;;3.78;1.38;;;19.40;56.00;;;;;;9175689;19;20017;-69
2022/09/22 16:43:13;;;;;;;5.07;1.35;;;19.30;56.10;;;;;;9175298;19;20352;-68
2022/09/22 16:46:30;;;;;;;6.75;1.58;;;19.20;56.20;;;;;;9175808;19;20035;-67
2022/09/22 16:49:36;;;;;;;3.08;1.40;;;19.10;56.20;;;;;;9178966;19;20562;-67